sensor_id;sensor_type;location;lat;lon;timestamp;P1;durP1;ratioP1;P2;durP2;ratioP2
37647;SDS011;23490;53.656;10.076;2023-04-03T00:02:17;5.20;;;1.92;;
37647;SDS011;23490;53.656;10.076;2023-04-03T00:04:43;2.55;;;1.10;;
37647;SDS011;23490;53.656;10.076;2023-04-03T00:07:08;8.27;;;1.92;;
37647;SDS011;23490;53.656;10.076;2023-04-03T00:09:33;4.93;;;1.50;;
37647;SDS011;23490;53.656;10.076;2023-04-03T00:12:02;5.65;;;1.58;;
37647;SDS011;23490;53.656;10.076;2023-04-03T00:14:28;4.13;;;1.58;;
37647;SDS011;23490;53.656;10.076;2023-04-03T00:16:53;4.20;;;1.25;;
37647;SDS011;23490;53.656;10.076;2023-04-03T00:19:18;6.25;;;1.55;;
37647;SDS011;23490;53.656;10.076;2023-04-03T00:21:44;3.95;;;1.40;;
37647;SDS011;23490;53.656;10.076;2023-04-03T00:24:10;4.22;;;1.40;;
37647;SDS011;23490;53.656;10.076;2023-04-03T00:26:36;4.45;;;1.38;;
37647;SDS011;23490;53.656;10.076;2023-04-03T00:29:02;5.55;;;1.25;;
37647;SDS011;23490;53.656;10.076;2023-04-03T00:31:27;5.65;;;1.67;;
37647;SDS011;23490;53.656;10.076;2023-04-03T00:33:53;6.00;;;1.55;;
37647;SDS011;23490;53.656;10.076;2023-04-03T00:36:18;6.75;;;1.92;;
37647;SDS011;23490;53.656;10.076;2023-04-03T00:38:44;6.43;;;2.17;;
37647;SDS011;23490;53.656;10.076;2023-04-03T00:41:10;6.22;;;1.73;;
37647;SDS011;23490;53.656;10.076;2023-04-03T00:43:35;4.60;;;1.67;;
37647;SDS011;23490;53.656;10.076;2023-04-03T00:46:01;8.13;;;1.60;;
37647;SDS011;23490;53.656;10.076;2023-04-03T00:51:02;5.95;;;1.50;;
37647;SDS011;23490;53.656;10.076;2023-04-03T00:53:33;6.78;;;1.08;;
37647;SDS011;23490;53.656;10.076;2023-04-03T00:56:02;5.18;;;1.40;;
37647;SDS011;23490;53.656;10.076;2023-04-03T00:58:40;7.07;;;1.98;;
37647;SDS011;23490;53.656;10.076;2023-04-03T01:01:12;5.07;;;1.20;;
37647;SDS011;23490;53.656;10.076;2023-04-03T01:03:41;8.40;;;1.75;;
37647;SDS011;23490;53.656;10.076;2023-04-03T01:06:06;6.75;;;1.60;;
37647;SDS011;23490;53.656;10.076;2023-04-03T01:08:35;7.20;;;1.58;;
37647;SDS011;23490;53.656;10.076;2023-04-03T01:11:00;4.00;;;1.65;;
37647;SDS011;23490;53.656;10.076;2023-04-03T01:13:30;3.42;;;1.23;;
37647;SDS011;23490;53.656;10.076;2023-04-03T01:16:00;6.43;;;1.70;;
37647;SDS011;23490;53.656;10.076;2023-04-03T01:18:28;6.43;;;1.60;;
37647;SDS011;23490;53.656;10.076;2023-04-03T01:26:30;6.45;;;1.83;;
37647;SDS011;23490;53.656;10.076;2023-04-03T01:28:58;2.75;;;1.33;;
37647;SDS011;23490;53.656;10.076;2023-04-03T01:31:25;5.80;;;1.52;;
37647;SDS011;23490;53.656;10.076;2023-04-03T01:34:00;3.60;;;1.40;;
37647;SDS011;23490;53.656;10.076;2023-04-03T01:36:27;3.47;;;1.40;;
37647;SDS011;23490;53.656;10.076;2023-04-03T01:38:55;2.40;;;1.37;;
37647;SDS011;23490;53.656;10.076;2023-04-03T01:41:23;8.15;;;1.80;;
37647;SDS011;23490;53.656;10.076;2023-04-03T01:43:48;7.93;;;1.50;;
37647;SDS011;23490;53.656;10.076;2023-04-03T01:46:14;5.60;;;1.27;;
37647;SDS011;23490;53.656;10.076;2023-04-03T01:48:41;7.97;;;1.50;;
37647;SDS011;23490;53.656;10.076;2023-04-03T01:51:06;4.53;;;1.33;;
37647;SDS011;23490;53.656;10.076;2023-04-03T01:53:33;4.13;;;1.45;;
37647;SDS011;23490;53.656;10.076;2023-04-03T01:55:58;6.10;;;1.50;;
37647;SDS011;23490;53.656;10.076;2023-04-03T01:58:24;5.10;;;1.48;;
37647;SDS011;23490;53.656;10.076;2023-04-03T02:00:49;5.13;;;1.83;;
37647;SDS011;23490;53.656;10.076;2023-04-03T02:03:16;4.03;;;1.52;;
37647;SDS011;23490;53.656;10.076;2023-04-03T02:05:41;4.50;;;1.30;;
37647;SDS011;23490;53.656;10.076;2023-04-03T02:08:06;7.90;;;2.15;;
37647;SDS011;23490;53.656;10.076;2023-04-03T02:10:35;11.23;;;2.08;;
37647;SDS011;23490;53.656;10.076;2023-04-03T02:13:00;5.13;;;1.70;;
37647;SDS011;23490;53.656;10.076;2023-04-03T02:15:26;8.82;;;1.52;;
37647;SDS011;23490;53.656;10.076;2023-04-03T02:17:52;8.55;;;2.10;;
37647;SDS011;23490;53.656;10.076;2023-04-03T02:20:17;5.88;;;1.60;;
37647;SDS011;23490;53.656;10.076;2023-04-03T02:22:43;7.38;;;1.92;;
37647;SDS011;23490;53.656;10.076;2023-04-03T02:25:08;4.07;;;1.23;;
37647;SDS011;23490;53.656;10.076;2023-04-03T02:27:35;6.95;;;2.20;;
37647;SDS011;23490;53.656;10.076;2023-04-03T02:30:00;5.65;;;1.67;;
37647;SDS011;23490;53.656;10.076;2023-04-03T02:32:26;8.68;;;1.80;;
37647;SDS011;23490;53.656;10.076;2023-04-03T02:34:51;5.28;;;1.55;;
37647;SDS011;23490;53.656;10.076;2023-04-03T02:37:17;6.70;;;2.10;;
37647;SDS011;23490;53.656;10.076;2023-04-03T02:39:42;4.32;;;1.60;;
37647;SDS011;23490;53.656;10.076;2023-04-03T02:42:08;5.90;;;1.73;;
37647;SDS011;23490;53.656;10.076;2023-04-03T02:44:33;4.82;;;1.52;;
37647;SDS011;23490;53.656;10.076;2023-04-03T02:46:58;6.15;;;1.80;;
37647;SDS011;23490;53.656;10.076;2023-04-03T02:49:24;6.47;;;1.70;;
37647;SDS011;23490;53.656;10.076;2023-04-03T02:51:49;4.95;;;1.70;;
37647;SDS011;23490;53.656;10.076;2023-04-03T02:54:16;8.77;;;1.80;;
37647;SDS011;23490;53.656;10.076;2023-04-03T02:56:41;7.13;;;2.17;;
37647;SDS011;23490;53.656;10.076;2023-04-03T02:59:07;4.70;;;1.33;;
37647;SDS011;23490;53.656;10.076;2023-04-03T03:01:34;6.05;;;1.42;;
37647;SDS011;23490;53.656;10.076;2023-04-03T03:04:00;10.85;;;2.28;;
37647;SDS011;23490;53.656;10.076;2023-04-03T03:06:26;9.70;;;2.05;;
37647;SDS011;23490;53.656;10.076;2023-04-03T03:08:51;8.05;;;1.58;;
37647;SDS011;23490;53.656;10.076;2023-04-03T03:11:18;7.70;;;1.95;;
37647;SDS011;23490;53.656;10.076;2023-04-03T03:13:44;5.35;;;1.95;;
37647;SDS011;23490;53.656;10.076;2023-04-03T03:16:09;5.32;;;2.03;;
37647;SDS011;23490;53.656;10.076;2023-04-03T03:18:35;5.75;;;1.67;;
37647;SDS011;23490;53.656;10.076;2023-04-03T03:21:02;6.47;;;1.90;;
37647;SDS011;23490;53.656;10.076;2023-04-03T03:23:29;5.28;;;1.85;;
37647;SDS011;23490;53.656;10.076;2023-04-03T03:26:07;3.90;;;1.67;;
37647;SDS011;23490;53.656;10.076;2023-04-03T03:28:35;4.85;;;1.55;;
37647;SDS011;23490;53.656;10.076;2023-04-03T03:31:02;5.85;;;1.65;;
37647;SDS011;23490;53.656;10.076;2023-04-03T03:33:28;12.50;;;2.80;;
37647;SDS011;23490;53.656;10.076;2023-04-03T03:35:54;4.22;;;1.40;;
37647;SDS011;23490;53.656;10.076;2023-04-03T03:38:19;7.10;;;2.08;;
37647;SDS011;23490;53.656;10.076;2023-04-03T03:40:46;7.65;;;2.10;;
37647;SDS011;23490;53.656;10.076;2023-04-03T03:43:14;6.38;;;1.80;;
37647;SDS011;23490;53.656;10.076;2023-04-03T03:45:41;5.32;;;1.92;;
37647;SDS011;23490;53.656;10.076;2023-04-03T03:48:06;5.28;;;1.80;;
37647;SDS011;23490;53.656;10.076;2023-04-03T03:50:32;5.13;;;1.60;;
37647;SDS011;23490;53.656;10.076;2023-04-03T03:52:57;3.25;;;1.73;;
37647;SDS011;23490;53.656;10.076;2023-04-03T03:55:23;4.97;;;1.85;;
37647;SDS011;23490;53.656;10.076;2023-04-03T03:57:48;5.50;;;1.60;;
37647;SDS011;23490;53.656;10.076;2023-04-03T04:00:14;5.47;;;1.85;;
37647;SDS011;23490;53.656;10.076;2023-04-03T04:02:41;8.20;;;2.10;;
37647;SDS011;23490;53.656;10.076;2023-04-03T04:05:07;4.97;;;1.67;;
37647;SDS011;23490;53.656;10.076;2023-04-03T04:07:33;6.20;;;2.20;;
37647;SDS011;23490;53.656;10.076;2023-04-03T04:09:59;5.28;;;1.83;;
37647;SDS011;23490;53.656;10.076;2023-04-03T04:12:24;10.05;;;2.33;;
37647;SDS011;23490;53.656;10.076;2023-04-03T04:14:50;6.28;;;2.40;;
37647;SDS011;23490;53.656;10.076;2023-04-03T04:17:17;4.93;;;2.50;;
37647;SDS011;23490;53.656;10.076;2023-04-03T04:19:42;4.15;;;1.80;;
37647;SDS011;23490;53.656;10.076;2023-04-03T04:22:08;10.55;;;2.40;;
37647;SDS011;23490;53.656;10.076;2023-04-03T04:24:34;4.32;;;2.17;;
37647;SDS011;23490;53.656;10.076;2023-04-03T04:26:59;7.32;;;2.35;;
37647;SDS011;23490;53.656;10.076;2023-04-03T04:29:24;5.93;;;1.92;;
37647;SDS011;23490;53.656;10.076;2023-04-03T04:31:50;9.32;;;1.95;;
37647;SDS011;23490;53.656;10.076;2023-04-03T04:34:15;7.63;;;2.03;;
37647;SDS011;23490;53.656;10.076;2023-04-03T04:36:41;6.20;;;2.00;;
37647;SDS011;23490;53.656;10.076;2023-04-03T04:39:08;7.55;;;1.90;;
37647;SDS011;23490;53.656;10.076;2023-04-03T04:41:34;6.60;;;1.70;;
37647;SDS011;23490;53.656;10.076;2023-04-03T04:44:00;5.93;;;1.73;;
37647;SDS011;23490;53.656;10.076;2023-04-03T04:46:26;9.35;;;2.92;;
37647;SDS011;23490;53.656;10.076;2023-04-03T04:48:51;4.35;;;1.88;;
37647;SDS011;23490;53.656;10.076;2023-04-03T04:51:17;4.60;;;2.05;;
37647;SDS011;23490;53.656;10.076;2023-04-03T04:53:42;5.20;;;2.05;;
37647;SDS011;23490;53.656;10.076;2023-04-03T04:56:11;8.52;;;2.42;;
37647;SDS011;23490;53.656;10.076;2023-04-03T04:58:36;6.75;;;2.72;;
37647;SDS011;23490;53.656;10.076;2023-04-03T05:01:03;6.13;;;2.33;;
37647;SDS011;23490;53.656;10.076;2023-04-03T05:03:30;6.05;;;2.58;;
37647;SDS011;23490;53.656;10.076;2023-04-03T05:05:55;6.15;;;2.30;;
37647;SDS011;23490;53.656;10.076;2023-04-03T05:08:21;6.07;;;2.13;;
37647;SDS011;23490;53.656;10.076;2023-04-03T05:10:47;5.75;;;2.28;;
37647;SDS011;23490;53.656;10.076;2023-04-03T05:13:13;8.38;;;2.28;;
37647;SDS011;23490;53.656;10.076;2023-04-03T05:15:38;5.75;;;2.45;;
37647;SDS011;23490;53.656;10.076;2023-04-03T05:18:04;4.65;;;2.38;;
37647;SDS011;23490;53.656;10.076;2023-04-03T05:20:30;5.13;;;2.15;;
37647;SDS011;23490;53.656;10.076;2023-04-03T05:22:56;4.38;;;2.13;;
37647;SDS011;23490;53.656;10.076;2023-04-03T05:25:21;10.02;;;2.92;;
37647;SDS011;23490;53.656;10.076;2023-04-03T05:27:47;6.97;;;2.45;;
37647;SDS011;23490;53.656;10.076;2023-04-03T05:30:13;7.10;;;1.92;;
37647;SDS011;23490;53.656;10.076;2023-04-03T05:32:39;8.07;;;2.20;;
37647;SDS011;23490;53.656;10.076;2023-04-03T05:35:05;5.90;;;2.88;;
37647;SDS011;23490;53.656;10.076;2023-04-03T05:37:33;8.75;;;2.40;;
37647;SDS011;23490;53.656;10.076;2023-04-03T05:39:58;5.95;;;2.38;;
37647;SDS011;23490;53.656;10.076;2023-04-03T05:42:26;6.35;;;2.35;;
37647;SDS011;23490;53.656;10.076;2023-04-03T05:44:52;6.28;;;2.72;;
37647;SDS011;23490;53.656;10.076;2023-04-03T05:47:18;7.55;;;2.75;;
37647;SDS011;23490;53.656;10.076;2023-04-03T05:49:44;8.73;;;2.65;;
37647;SDS011;23490;53.656;10.076;2023-04-03T05:52:26;12.23;;;2.92;;
37647;SDS011;23490;53.656;10.076;2023-04-03T05:54:53;8.82;;;3.03;;
37647;SDS011;23490;53.656;10.076;2023-04-03T05:57:19;8.27;;;2.67;;
37647;SDS011;23490;53.656;10.076;2023-04-03T05:59:45;8.95;;;2.88;;
37647;SDS011;23490;53.656;10.076;2023-04-03T06:02:12;9.68;;;3.15;;
37647;SDS011;23490;53.656;10.076;2023-04-03T06:04:39;9.35;;;3.50;;
37647;SDS011;23490;53.656;10.076;2023-04-03T06:07:04;9.15;;;3.55;;
37647;SDS011;23490;53.656;10.076;2023-04-03T06:09:30;6.03;;;2.38;;
37647;SDS011;23490;53.656;10.076;2023-04-03T06:11:56;10.70;;;3.17;;
37647;SDS011;23490;53.656;10.076;2023-04-03T06:14:23;9.43;;;2.78;;
37647;SDS011;23490;53.656;10.076;2023-04-03T06:16:50;13.30;;;2.38;;
37647;SDS011;23490;53.656;10.076;2023-04-03T06:19:16;7.85;;;3.15;;
37647;SDS011;23490;53.656;10.076;2023-04-03T06:21:41;7.68;;;2.75;;
37647;SDS011;23490;53.656;10.076;2023-04-03T06:24:07;8.43;;;3.13;;
37647;SDS011;23490;53.656;10.076;2023-04-03T06:26:34;6.55;;;3.28;;
37647;SDS011;23490;53.656;10.076;2023-04-03T06:29:00;8.25;;;2.97;;
37647;SDS011;23490;53.656;10.076;2023-04-03T06:31:26;7.47;;;3.25;;
37647;SDS011;23490;53.656;10.076;2023-04-03T06:33:52;8.40;;;2.75;;
37647;SDS011;23490;53.656;10.076;2023-04-03T06:36:18;6.30;;;2.40;;
37647;SDS011;23490;53.656;10.076;2023-04-03T06:38:45;10.32;;;2.90;;
37647;SDS011;23490;53.656;10.076;2023-04-03T06:41:11;9.05;;;2.55;;
37647;SDS011;23490;53.656;10.076;2023-04-03T06:43:37;7.60;;;2.97;;
37647;SDS011;23490;53.656;10.076;2023-04-03T06:46:02;6.90;;;3.00;;
37647;SDS011;23490;53.656;10.076;2023-04-03T06:48:28;13.18;;;3.25;;
37647;SDS011;23490;53.656;10.076;2023-04-03T06:50:54;7.88;;;2.60;;
37647;SDS011;23490;53.656;10.076;2023-04-03T06:53:19;6.78;;;2.30;;
37647;SDS011;23490;53.656;10.076;2023-04-03T06:55:45;8.30;;;2.15;;
37647;SDS011;23490;53.656;10.076;2023-04-03T06:58:11;5.90;;;1.63;;
37647;SDS011;23490;53.656;10.076;2023-04-03T07:00:38;5.30;;;1.90;;
37647;SDS011;23490;53.656;10.076;2023-04-03T07:03:03;7.03;;;2.42;;
37647;SDS011;23490;53.656;10.076;2023-04-03T07:05:29;5.53;;;1.75;;
37647;SDS011;23490;53.656;10.076;2023-04-03T07:07:54;7.03;;;2.25;;
37647;SDS011;23490;53.656;10.076;2023-04-03T07:10:20;3.88;;;1.67;;
37647;SDS011;23490;53.656;10.076;2023-04-03T07:12:46;7.65;;;1.60;;
37647;SDS011;23490;53.656;10.076;2023-04-03T07:15:12;6.88;;;1.70;;
37647;SDS011;23490;53.656;10.076;2023-04-03T07:17:38;6.18;;;1.60;;
37647;SDS011;23490;53.656;10.076;2023-04-03T07:20:03;4.22;;;1.50;;
37647;SDS011;23490;53.656;10.076;2023-04-03T07:22:30;3.10;;;1.65;;
37647;SDS011;23490;53.656;10.076;2023-04-03T07:24:55;6.55;;;1.50;;
37647;SDS011;23490;53.656;10.076;2023-04-03T07:27:21;5.55;;;1.75;;
37647;SDS011;23490;53.656;10.076;2023-04-03T07:29:46;5.85;;;1.60;;
37647;SDS011;23490;53.656;10.076;2023-04-03T07:32:13;5.43;;;1.30;;
37647;SDS011;23490;53.656;10.076;2023-04-03T07:34:38;4.50;;;1.30;;
37647;SDS011;23490;53.656;10.076;2023-04-03T07:37:04;6.57;;;2.13;;
37647;SDS011;23490;53.656;10.076;2023-04-03T07:39:29;5.13;;;1.48;;
37647;SDS011;23490;53.656;10.076;2023-04-03T07:41:55;6.43;;;1.48;;
37647;SDS011;23490;53.656;10.076;2023-04-03T07:44:21;4.72;;;0.90;;
37647;SDS011;23490;53.656;10.076;2023-04-03T07:46:47;4.38;;;1.30;;
37647;SDS011;23490;53.656;10.076;2023-04-03T07:49:13;5.88;;;0.93;;
37647;SDS011;23490;53.656;10.076;2023-04-03T07:51:39;4.25;;;0.73;;
37647;SDS011;23490;53.656;10.076;2023-04-03T07:54:04;2.35;;;1.00;;
37647;SDS011;23490;53.656;10.076;2023-04-03T07:56:30;4.75;;;1.15;;
37647;SDS011;23490;53.656;10.076;2023-04-03T07:58:56;3.67;;;1.13;;
37647;SDS011;23490;53.656;10.076;2023-04-03T08:01:22;2.72;;;1.27;;
37647;SDS011;23490;53.656;10.076;2023-04-03T08:03:48;5.53;;;1.02;;
37647;SDS011;23490;53.656;10.076;2023-04-03T08:06:13;4.20;;;1.20;;
37647;SDS011;23490;53.656;10.076;2023-04-03T08:08:40;4.55;;;1.10;;
37647;SDS011;23490;53.656;10.076;2023-04-03T08:11:06;3.30;;;1.08;;
37647;SDS011;23490;53.656;10.076;2023-04-03T08:13:33;3.58;;;1.30;;
37647;SDS011;23490;53.656;10.076;2023-04-03T08:16:07;3.90;;;1.10;;
37647;SDS011;23490;53.656;10.076;2023-04-03T08:18:37;5.35;;;0.82;;
37647;SDS011;23490;53.656;10.076;2023-04-03T08:21:07;4.38;;;0.90;;
37647;SDS011;23490;53.656;10.076;2023-04-03T08:26:04;3.33;;;0.95;;
37647;SDS011;23490;53.656;10.076;2023-04-03T08:28:38;2.97;;;0.73;;
37647;SDS011;23490;53.656;10.076;2023-04-03T08:31:05;3.63;;;1.20;;
37647;SDS011;23490;53.656;10.076;2023-04-03T08:33:31;1.45;;;0.55;;
37647;SDS011;23490;53.656;10.076;2023-04-03T08:35:58;5.28;;;0.68;;
37647;SDS011;23490;53.656;10.076;2023-04-03T08:38:24;3.78;;;1.15;;
37647;SDS011;23490;53.656;10.076;2023-04-03T08:41:04;2.15;;;0.70;;
37647;SDS011;23490;53.656;10.076;2023-04-03T08:46:20;1.48;;;0.63;;
37647;SDS011;23490;53.656;10.076;2023-04-03T08:51:17;2.38;;;0.70;;
37647;SDS011;23490;53.656;10.076;2023-04-03T08:53:48;2.17;;;0.60;;
37647;SDS011;23490;53.656;10.076;2023-04-03T08:56:28;1.42;;;0.55;;
37647;SDS011;23490;53.656;10.076;2023-04-03T08:58:56;2.45;;;0.68;;
37647;SDS011;23490;53.656;10.076;2023-04-03T09:01:35;1.85;;;0.85;;
37647;SDS011;23490;53.656;10.076;2023-04-03T09:04:05;3.88;;;0.80;;
37647;SDS011;23490;53.656;10.076;2023-04-03T09:06:37;3.53;;;0.75;;
37647;SDS011;23490;53.656;10.076;2023-04-03T09:09:12;1.60;;;0.65;;
37647;SDS011;23490;53.656;10.076;2023-04-03T09:11:44;3.05;;;0.60;;
37647;SDS011;23490;53.656;10.076;2023-04-03T09:14:30;2.88;;;0.65;;
37647;SDS011;23490;53.656;10.076;2023-04-03T09:17:14;3.08;;;0.82;;
37647;SDS011;23490;53.656;10.076;2023-04-03T09:22:31;1.20;;;0.40;;
37647;SDS011;23490;53.656;10.076;2023-04-03T09:25:00;1.38;;;0.60;;
37647;SDS011;23490;53.656;10.076;2023-04-03T09:27:30;0.88;;;0.40;;
37647;SDS011;23490;53.656;10.076;2023-04-03T09:29:56;1.00;;;0.50;;
37647;SDS011;23490;53.656;10.076;2023-04-03T09:32:27;2.28;;;0.55;;
37647;SDS011;23490;53.656;10.076;2023-04-03T09:34:57;3.72;;;1.08;;
37647;SDS011;23490;53.656;10.076;2023-04-03T09:37:37;2.38;;;0.77;;
37647;SDS011;23490;53.656;10.076;2023-04-03T09:40:27;2.60;;;0.75;;
37647;SDS011;23490;53.656;10.076;2023-04-03T09:42:57;2.22;;;0.95;;
37647;SDS011;23490;53.656;10.076;2023-04-03T09:45:32;2.33;;;0.98;;
37647;SDS011;23490;53.656;10.076;2023-04-03T09:50:52;2.25;;;0.50;;
37647;SDS011;23490;53.656;10.076;2023-04-03T09:53:42;0.80;;;0.40;;
37647;SDS011;23490;53.656;10.076;2023-04-03T09:58:40;2.10;;;0.50;;
37647;SDS011;23490;53.656;10.076;2023-04-03T10:04:08;3.78;;;0.60;;
37647;SDS011;23490;53.656;10.076;2023-04-03T10:06:40;1.58;;;0.70;;
37647;SDS011;23490;53.656;10.076;2023-04-03T10:14:29;3.42;;;0.70;;
37647;SDS011;23490;53.656;10.076;2023-04-03T10:28:23;2.30;;;0.57;;
37647;SDS011;23490;53.656;10.076;2023-04-03T10:31:21;2.03;;;0.60;;
37647;SDS011;23490;53.656;10.076;2023-04-03T10:36:51;1.48;;;0.73;;
37647;SDS011;23490;53.656;10.076;2023-04-03T10:39:39;3.10;;;1.10;;
37647;SDS011;23490;53.656;10.076;2023-04-03T10:42:15;2.03;;;0.60;;
37647;SDS011;23490;53.656;10.076;2023-04-03T10:45:03;4.25;;;1.23;;
37647;SDS011;23490;53.656;10.076;2023-04-03T10:50:24;2.13;;;0.77;;
37647;SDS011;23490;53.656;10.076;2023-04-03T11:01:38;4.10;;;0.98;;
37647;SDS011;23490;53.656;10.076;2023-04-03T11:04:09;2.13;;;0.70;;
37647;SDS011;23490;53.656;10.076;2023-04-03T11:06:43;3.28;;;1.45;;
37647;SDS011;23490;53.656;10.076;2023-04-03T11:12:32;2.70;;;0.80;;
37647;SDS011;23490;53.656;10.076;2023-04-03T11:14:51;3.83;;;1.20;;
37647;SDS011;23490;53.656;10.076;2023-04-03T11:22:30;4.32;;;1.20;;
37647;SDS011;23490;53.656;10.076;2023-04-03T11:25:02;2.88;;;0.95;;
37647;SDS011;23490;53.656;10.076;2023-04-03T11:27:35;3.67;;;0.65;;
37647;SDS011;23490;53.656;10.076;2023-04-03T11:30:19;2.22;;;0.60;;
37647;SDS011;23490;53.656;10.076;2023-04-03T11:36:00;1.67;;;0.50;;
37647;SDS011;23490;53.656;10.076;2023-04-03T11:38:36;3.17;;;0.60;;
37647;SDS011;23490;53.656;10.076;2023-04-03T11:41:08;2.15;;;0.75;;
37647;SDS011;23490;53.656;10.076;2023-04-03T11:46:48;2.60;;;0.60;;
37647;SDS011;23490;53.656;10.076;2023-04-03T12:08:50;2.25;;;0.70;;
37647;SDS011;23490;53.656;10.076;2023-04-03T12:11:31;1.63;;;0.60;;
37647;SDS011;23490;53.656;10.076;2023-04-03T12:19:02;2.80;;;0.55;;
37647;SDS011;23490;53.656;10.076;2023-04-03T12:29:24;1.98;;;0.70;;
37647;SDS011;23490;53.656;10.076;2023-04-03T12:40:01;2.03;;;0.50;;
37647;SDS011;23490;53.656;10.076;2023-04-03T12:43:07;2.17;;;0.70;;
37647;SDS011;23490;53.656;10.076;2023-04-03T12:48:25;2.95;;;0.63;;
37647;SDS011;23490;53.656;10.076;2023-04-03T12:50:52;3.03;;;0.70;;
37647;SDS011;23490;53.656;10.076;2023-04-03T12:53:23;1.67;;;0.55;;
37647;SDS011;23490;53.656;10.076;2023-04-03T12:55:53;3.78;;;0.70;;
37647;SDS011;23490;53.656;10.076;2023-04-03T12:58:43;3.58;;;0.90;;
37647;SDS011;23490;53.656;10.076;2023-04-03T13:01:12;1.92;;;0.60;;
37647;SDS011;23490;53.656;10.076;2023-04-03T13:03:45;1.92;;;0.77;;
37647;SDS011;23490;53.656;10.076;2023-04-03T13:06:19;2.03;;;0.77;;
37647;SDS011;23490;53.656;10.076;2023-04-03T13:08:49;1.30;;;0.65;;
37647;SDS011;23490;53.656;10.076;2023-04-03T13:11:17;2.72;;;0.80;;
37647;SDS011;23490;53.656;10.076;2023-04-03T13:13:56;3.58;;;0.65;;
37647;SDS011;23490;53.656;10.076;2023-04-03T13:16:30;2.88;;;0.98;;
37647;SDS011;23490;53.656;10.076;2023-04-03T13:18:57;3.60;;;0.93;;
37647;SDS011;23490;53.656;10.076;2023-04-03T13:21:26;2.22;;;0.98;;
37647;SDS011;23490;53.656;10.076;2023-04-03T13:23:55;2.58;;;0.70;;
37647;SDS011;23490;53.656;10.076;2023-04-03T13:26:24;2.95;;;0.85;;
37647;SDS011;23490;53.656;10.076;2023-04-03T13:31:26;3.72;;;1.00;;
37647;SDS011;23490;53.656;10.076;2023-04-03T13:33:57;2.97;;;0.95;;
37647;SDS011;23490;53.656;10.076;2023-04-03T13:36:27;2.67;;;0.70;;
37647;SDS011;23490;53.656;10.076;2023-04-03T13:41:42;1.60;;;0.70;;
37647;SDS011;23490;53.656;10.076;2023-04-03T13:46:48;4.35;;;0.90;;
37647;SDS011;23490;53.656;10.076;2023-04-03T13:51:51;3.22;;;0.90;;
37647;SDS011;23490;53.656;10.076;2023-04-03T13:54:24;2.72;;;1.00;;
37647;SDS011;23490;53.656;10.076;2023-04-03T13:56:56;1.90;;;0.75;;
37647;SDS011;23490;53.656;10.076;2023-04-03T13:59:24;2.35;;;0.70;;
37647;SDS011;23490;53.656;10.076;2023-04-03T14:04:28;2.90;;;0.95;;
37647;SDS011;23490;53.656;10.076;2023-04-03T14:07:13;2.50;;;0.75;;
37647;SDS011;23490;53.656;10.076;2023-04-03T14:09:41;2.30;;;0.65;;
37647;SDS011;23490;53.656;10.076;2023-04-03T14:12:15;1.25;;;0.60;;
37647;SDS011;23490;53.656;10.076;2023-04-03T14:14:51;1.40;;;0.70;;
37647;SDS011;23490;53.656;10.076;2023-04-03T14:17:19;1.60;;;0.70;;
37647;SDS011;23490;53.656;10.076;2023-04-03T14:19:47;4.05;;;1.13;;
37647;SDS011;23490;53.656;10.076;2023-04-03T14:22:24;3.38;;;0.82;;
37647;SDS011;23490;53.656;10.076;2023-04-03T14:24:53;4.63;;;0.80;;
37647;SDS011;23490;53.656;10.076;2023-04-03T14:27:22;4.13;;;1.10;;
37647;SDS011;23490;53.656;10.076;2023-04-03T14:29:52;4.15;;;0.98;;
37647;SDS011;23490;53.656;10.076;2023-04-03T14:32:20;3.10;;;0.98;;
37647;SDS011;23490;53.656;10.076;2023-04-03T14:34:48;2.20;;;0.80;;
37647;SDS011;23490;53.656;10.076;2023-04-03T14:37:19;2.78;;;1.10;;
37647;SDS011;23490;53.656;10.076;2023-04-03T14:39:48;5.15;;;0.80;;
37647;SDS011;23490;53.656;10.076;2023-04-03T14:42:16;2.92;;;0.93;;
37647;SDS011;23490;53.656;10.076;2023-04-03T14:44:43;2.50;;;1.02;;
37647;SDS011;23490;53.656;10.076;2023-04-03T14:47:13;3.45;;;0.95;;
37647;SDS011;23490;53.656;10.076;2023-04-03T14:49:41;3.45;;;0.82;;
37647;SDS011;23490;53.656;10.076;2023-04-03T14:52:15;3.25;;;1.05;;
37647;SDS011;23490;53.656;10.076;2023-04-03T14:54:45;3.97;;;1.25;;
37647;SDS011;23490;53.656;10.076;2023-04-03T14:57:12;3.95;;;0.90;;
37647;SDS011;23490;53.656;10.076;2023-04-03T14:59:44;3.90;;;1.17;;
37647;SDS011;23490;53.656;10.076;2023-04-03T15:02:53;3.78;;;0.98;;
37647;SDS011;23490;53.656;10.076;2023-04-03T15:05:02;3.40;;;1.20;;
37647;SDS011;23490;53.656;10.076;2023-04-03T15:07:30;4.20;;;1.38;;
37647;SDS011;23490;53.656;10.076;2023-04-03T15:10:02;4.32;;;0.90;;
37647;SDS011;23490;53.656;10.076;2023-04-03T15:12:39;2.25;;;0.77;;
37647;SDS011;23490;53.656;10.076;2023-04-03T15:15:05;2.55;;;0.88;;
37647;SDS011;23490;53.656;10.076;2023-04-03T15:17:31;2.47;;;0.90;;
37647;SDS011;23490;53.656;10.076;2023-04-03T15:19:56;1.60;;;0.70;;
37647;SDS011;23490;53.656;10.076;2023-04-03T15:22:23;3.97;;;0.80;;
37647;SDS011;23490;53.656;10.076;2023-04-03T15:24:48;4.63;;;1.00;;
37647;SDS011;23490;53.656;10.076;2023-04-03T15:27:14;3.33;;;1.20;;
37647;SDS011;23490;53.656;10.076;2023-04-03T15:29:41;2.70;;;0.93;;
37647;SDS011;23490;53.656;10.076;2023-04-03T15:32:08;3.67;;;0.95;;
37647;SDS011;23490;53.656;10.076;2023-04-03T15:34:35;4.85;;;1.35;;
37647;SDS011;23490;53.656;10.076;2023-04-03T15:37:01;3.92;;;1.00;;
37647;SDS011;23490;53.656;10.076;2023-04-03T15:39:27;2.75;;;1.15;;
37647;SDS011;23490;53.656;10.076;2023-04-03T15:41:52;1.65;;;1.05;;
37647;SDS011;23490;53.656;10.076;2023-04-03T15:44:19;5.00;;;0.90;;
37647;SDS011;23490;53.656;10.076;2023-04-03T15:46:45;4.00;;;0.98;;
37647;SDS011;23490;53.656;10.076;2023-04-03T15:49:12;1.95;;;0.90;;
37647;SDS011;23490;53.656;10.076;2023-04-03T15:51:39;2.17;;;0.88;;
37647;SDS011;23490;53.656;10.076;2023-04-03T15:54:04;2.25;;;0.90;;
37647;SDS011;23490;53.656;10.076;2023-04-03T15:56:30;3.67;;;1.10;;
37647;SDS011;23490;53.656;10.076;2023-04-03T15:58:55;2.47;;;0.65;;
37647;SDS011;23490;53.656;10.076;2023-04-03T16:01:23;2.33;;;1.33;;
37647;SDS011;23490;53.656;10.076;2023-04-03T16:03:49;5.43;;;1.02;;
37647;SDS011;23490;53.656;10.076;2023-04-03T16:06:14;3.45;;;0.90;;
37647;SDS011;23490;53.656;10.076;2023-04-03T16:08:41;2.92;;;0.77;;
37647;SDS011;23490;53.656;10.076;2023-04-03T16:11:08;5.05;;;1.10;;
37647;SDS011;23490;53.656;10.076;2023-04-03T16:13:34;3.05;;;0.95;;
37647;SDS011;23490;53.656;10.076;2023-04-03T16:16:00;1.23;;;0.85;;
37647;SDS011;23490;53.656;10.076;2023-04-03T16:18:29;7.88;;;1.27;;
37647;SDS011;23490;53.656;10.076;2023-04-03T16:20:55;2.63;;;0.73;;
37647;SDS011;23490;53.656;10.076;2023-04-03T16:23:21;2.67;;;0.80;;
37647;SDS011;23490;53.656;10.076;2023-04-03T16:25:47;1.75;;;0.82;;
37647;SDS011;23490;53.656;10.076;2023-04-03T16:28:14;3.50;;;1.13;;
37647;SDS011;23490;53.656;10.076;2023-04-03T16:30:43;2.28;;;0.57;;
37647;SDS011;23490;53.656;10.076;2023-04-03T16:33:10;4.10;;;0.90;;
37647;SDS011;23490;53.656;10.076;2023-04-03T16:35:37;3.83;;;1.00;;
37647;SDS011;23490;53.656;10.076;2023-04-03T16:38:03;4.55;;;1.20;;
37647;SDS011;23490;53.656;10.076;2023-04-03T16:40:28;4.07;;;0.90;;
37647;SDS011;23490;53.656;10.076;2023-04-03T16:42:53;4.20;;;1.08;;
37647;SDS011;23490;53.656;10.076;2023-04-03T16:45:19;5.13;;;1.25;;
37647;SDS011;23490;53.656;10.076;2023-04-03T16:47:45;5.03;;;0.80;;
37647;SDS011;23490;53.656;10.076;2023-04-03T16:50:10;7.30;;;1.30;;